<?xml version="1.0" encoding="UTF-8" standalone="no" ?>
<gpx xmlns="http://www.topografix.com/GPX/1/1" xmlns:xsi="http://www.w3.org/2001/XMLSchema-instance" xsi:schemaLocation="http://www.topografix.com/GPX/1/1 http://www.topografix.com/GPX/1/1/gpx.xsd" version="1.1" creator="VisuGPX - https://www.visugpx.com">
  <metadata>
    <name>Jogging Naxos-Amadeus-AF</name>
    <desc><![CDATA[Jogging Naxos-Amadeus-AF]]></desc>
  </metadata>
  <trk>
    <name><![CDATA[Jogging Naxos-Amadeus-AF_1]]></name>
    <trkseg>
      <trkpt lat="43.62697" lon="7.04146">
        <ele>169</ele>
        <time>2011-02-24T11:15:13Z</time>
      </trkpt>
      <trkpt lat="43.62697" lon="7.04146">
        <ele>169</ele>
        <time>2011-02-24T11:15:31Z</time>
      </trkpt>
      <trkpt lat="43.62712" lon="7.04184">
        <ele>169</ele>
        <time>2011-02-24T11:15:37Z</time>
      </trkpt>
      <trkpt lat="43.62717" lon="7.04212">
        <ele>169</ele>
        <time>2011-02-24T11:15:42Z</time>
      </trkpt>
      <trkpt lat="43.62716" lon="7.0424">
        <ele>169</ele>
        <time>2011-02-24T11:15:46Z</time>
      </trkpt>
      <trkpt lat="43.62715" lon="7.04264">
        <ele>169</ele>
        <time>2011-02-24T11:15:50Z</time>
      </trkpt>
      <trkpt lat="43.62711" lon="7.04289">
        <ele>169</ele>
        <time>2011-02-24T11:15:54Z</time>
      </trkpt>
      <trkpt lat="43.62704" lon="7.04308">
        <ele>168</ele>
        <time>2011-02-24T11:15:59Z</time>
      </trkpt>
      <trkpt lat="43.62696" lon="7.04327">
        <ele>168</ele>
        <time>2011-02-24T11:16:03Z</time>
      </trkpt>
      <trkpt lat="43.62686" lon="7.04344">
        <ele>167</ele>
        <time>2011-02-24T11:16:07Z</time>
      </trkpt>
      <trkpt lat="43.62676" lon="7.04357">
        <ele>167</ele>
        <time>2011-02-24T11:16:12Z</time>
      </trkpt>
      <trkpt lat="43.62665" lon="7.0437">
        <ele>165</ele>
        <time>2011-02-24T11:16:16Z</time>
      </trkpt>
      <trkpt lat="43.62654" lon="7.04383">
        <ele>165</ele>
        <time>2011-02-24T11:16:20Z</time>
      </trkpt>
      <trkpt lat="43.62643" lon="7.04396">
        <ele>165</ele>
        <time>2011-02-24T11:16:24Z</time>
      </trkpt>
      <trkpt lat="43.62633" lon="7.04411">
        <ele>165</ele>
        <time>2011-02-24T11:16:29Z</time>
      </trkpt>
      <trkpt lat="43.62625" lon="7.04429">
        <ele>165</ele>
        <time>2011-02-24T11:16:33Z</time>
      </trkpt>
      <trkpt lat="43.62617" lon="7.04445">
        <ele>164</ele>
        <time>2011-02-24T11:16:37Z</time>
      </trkpt>
      <trkpt lat="43.62609" lon="7.04462">
        <ele>164</ele>
        <time>2011-02-24T11:16:41Z</time>
      </trkpt>
      <trkpt lat="43.626" lon="7.0448">
        <ele>163</ele>
        <time>2011-02-24T11:16:46Z</time>
      </trkpt>
      <trkpt lat="43.62592" lon="7.04497">
        <ele>161</ele>
        <time>2011-02-24T11:16:50Z</time>
      </trkpt>
      <trkpt lat="43.62582" lon="7.04514">
        <ele>157</ele>
        <time>2011-02-24T11:16:54Z</time>
      </trkpt>
      <trkpt lat="43.62572" lon="7.04539">
        <ele>156</ele>
        <time>2011-02-24T11:17:01Z</time>
      </trkpt>
      <trkpt lat="43.62566" lon="7.04558">
        <ele>156</ele>
        <time>2011-02-24T11:17:05Z</time>
      </trkpt>
      <trkpt lat="43.62561" lon="7.04578">
        <ele>156</ele>
        <time>2011-02-24T11:17:09Z</time>
      </trkpt>
      <trkpt lat="43.62557" lon="7.04599">
        <ele>155</ele>
        <time>2011-02-24T11:17:14Z</time>
      </trkpt>
      <trkpt lat="43.62551" lon="7.04619">
        <ele>154</ele>
        <time>2011-02-24T11:17:18Z</time>
      </trkpt>
      <trkpt lat="43.62532" lon="7.04648">
        <ele>153</ele>
        <time>2011-02-24T11:17:25Z</time>
      </trkpt>
      <trkpt lat="43.62504" lon="7.04667">
        <ele>150</ele>
        <time>2011-02-24T11:17:34Z</time>
      </trkpt>
      <trkpt lat="43.62491" lon="7.0468">
        <ele>151</ele>
        <time>2011-02-24T11:17:38Z</time>
      </trkpt>
      <trkpt lat="43.62481" lon="7.04697">
        <ele>151</ele>
        <time>2011-02-24T11:17:43Z</time>
      </trkpt>
      <trkpt lat="43.62471" lon="7.04716">
        <ele>151</ele>
        <time>2011-02-24T11:17:48Z</time>
      </trkpt>
      <trkpt lat="43.62464" lon="7.04735">
        <ele>151</ele>
        <time>2011-02-24T11:17:53Z</time>
      </trkpt>
      <trkpt lat="43.62459" lon="7.04758">
        <ele>149</ele>
        <time>2011-02-24T11:17:57Z</time>
      </trkpt>
      <trkpt lat="43.62457" lon="7.04781">
        <ele>148</ele>
        <time>2011-02-24T11:18:02Z</time>
      </trkpt>
      <trkpt lat="43.62456" lon="7.04803">
        <ele>147</ele>
        <time>2011-02-24T11:18:07Z</time>
      </trkpt>
      <trkpt lat="43.62456" lon="7.04842">
        <ele>144</ele>
        <time>2011-02-24T11:18:14Z</time>
      </trkpt>
      <trkpt lat="43.62464" lon="7.04867">
        <ele>143</ele>
        <time>2011-02-24T11:18:20Z</time>
      </trkpt>
      <trkpt lat="43.62477" lon="7.04881">
        <ele>142</ele>
        <time>2011-02-24T11:18:25Z</time>
      </trkpt>
      <trkpt lat="43.62494" lon="7.04891">
        <ele>142</ele>
        <time>2011-02-24T11:18:29Z</time>
      </trkpt>
      <trkpt lat="43.62512" lon="7.04896">
        <ele>143</ele>
        <time>2011-02-24T11:18:34Z</time>
      </trkpt>
      <trkpt lat="43.62529" lon="7.04904">
        <ele>144</ele>
        <time>2011-02-24T11:18:39Z</time>
      </trkpt>
      <trkpt lat="43.62542" lon="7.04917">
        <ele>142</ele>
        <time>2011-02-24T11:18:43Z</time>
      </trkpt>
      <trkpt lat="43.62553" lon="7.04959">
        <ele>142</ele>
        <time>2011-02-24T11:18:53Z</time>
      </trkpt>
      <trkpt lat="43.62552" lon="7.04983">
        <ele>141</ele>
        <time>2011-02-24T11:18:57Z</time>
      </trkpt>
      <trkpt lat="43.62558" lon="7.05001">
        <ele>139</ele>
        <time>2011-02-24T11:19:03Z</time>
      </trkpt>
      <trkpt lat="43.62568" lon="7.05017">
        <ele>140</ele>
        <time>2011-02-24T11:19:08Z</time>
      </trkpt>
      <trkpt lat="43.6258" lon="7.05032">
        <ele>139</ele>
        <time>2011-02-24T11:19:13Z</time>
      </trkpt>
      <trkpt lat="43.62586" lon="7.05049">
        <ele>144</ele>
        <time>2011-02-24T11:19:20Z</time>
      </trkpt>
      <trkpt lat="43.62587" lon="7.05069">
        <ele>142</ele>
        <time>2011-02-24T11:19:26Z</time>
      </trkpt>
      <trkpt lat="43.62577" lon="7.05085">
        <ele>138</ele>
        <time>2011-02-24T11:19:31Z</time>
      </trkpt>
      <trkpt lat="43.62562" lon="7.05094">
        <ele>137</ele>
        <time>2011-02-24T11:19:35Z</time>
      </trkpt>
      <trkpt lat="43.62534" lon="7.05111">
        <ele>136</ele>
        <time>2011-02-24T11:19:43Z</time>
      </trkpt>
      <trkpt lat="43.62527" lon="7.05127">
        <ele>136</ele>
        <time>2011-02-24T11:19:48Z</time>
      </trkpt>
      <trkpt lat="43.62525" lon="7.05148">
        <ele>135</ele>
        <time>2011-02-24T11:19:53Z</time>
      </trkpt>
      <trkpt lat="43.62524" lon="7.05171">
        <ele>135</ele>
        <time>2011-02-24T11:19:57Z</time>
      </trkpt>
      <trkpt lat="43.62521" lon="7.05192">
        <ele>135</ele>
        <time>2011-02-24T11:20:02Z</time>
      </trkpt>
      <trkpt lat="43.62515" lon="7.05211">
        <ele>135</ele>
        <time>2011-02-24T11:20:06Z</time>
      </trkpt>
      <trkpt lat="43.62507" lon="7.05229">
        <ele>135</ele>
        <time>2011-02-24T11:20:11Z</time>
      </trkpt>
      <trkpt lat="43.62497" lon="7.05243">
        <ele>133</ele>
        <time>2011-02-24T11:20:16Z</time>
      </trkpt>
      <trkpt lat="43.62484" lon="7.05253">
        <ele>132</ele>
        <time>2011-02-24T11:20:20Z</time>
      </trkpt>
      <trkpt lat="43.6247" lon="7.05257">
        <ele>132</ele>
        <time>2011-02-24T11:20:25Z</time>
      </trkpt>
      <trkpt lat="43.62456" lon="7.05263">
        <ele>131</ele>
        <time>2011-02-24T11:20:30Z</time>
      </trkpt>
      <trkpt lat="43.62443" lon="7.05272">
        <ele>131</ele>
        <time>2011-02-24T11:20:34Z</time>
      </trkpt>
      <trkpt lat="43.62432" lon="7.05286">
        <ele>130</ele>
        <time>2011-02-24T11:20:39Z</time>
      </trkpt>
      <trkpt lat="43.62428" lon="7.05307">
        <ele>129</ele>
        <time>2011-02-24T11:20:44Z</time>
      </trkpt>
      <trkpt lat="43.62425" lon="7.05328">
        <ele>128</ele>
        <time>2011-02-24T11:20:48Z</time>
      </trkpt>
      <trkpt lat="43.62424" lon="7.05351">
        <ele>127</ele>
        <time>2011-02-24T11:20:53Z</time>
      </trkpt>
      <trkpt lat="43.62423" lon="7.05372">
        <ele>127</ele>
        <time>2011-02-24T11:20:57Z</time>
      </trkpt>
      <trkpt lat="43.62421" lon="7.05396">
        <ele>125</ele>
        <time>2011-02-24T11:21:02Z</time>
      </trkpt>
      <trkpt lat="43.62417" lon="7.05418">
        <ele>121</ele>
        <time>2011-02-24T11:21:07Z</time>
      </trkpt>
      <trkpt lat="43.62411" lon="7.05439">
        <ele>121</ele>
        <time>2011-02-24T11:21:11Z</time>
      </trkpt>
      <trkpt lat="43.62395" lon="7.05471">
        <ele>121</ele>
        <time>2011-02-24T11:21:20Z</time>
      </trkpt>
      <trkpt lat="43.62389" lon="7.05496">
        <ele>121</ele>
        <time>2011-02-24T11:21:26Z</time>
      </trkpt>
      <trkpt lat="43.62393" lon="7.05518">
        <ele>122</ele>
        <time>2011-02-24T11:21:33Z</time>
      </trkpt>
      <trkpt lat="43.62405" lon="7.05534">
        <ele>122</ele>
        <time>2011-02-24T11:21:40Z</time>
      </trkpt>
      <trkpt lat="43.62418" lon="7.05547">
        <ele>124</ele>
        <time>2011-02-24T11:21:46Z</time>
      </trkpt>
      <trkpt lat="43.62433" lon="7.05564">
        <ele>124</ele>
        <time>2011-02-24T11:21:54Z</time>
      </trkpt>
      <trkpt lat="43.6243" lon="7.05586">
        <ele>126</ele>
        <time>2011-02-24T11:22:00Z</time>
      </trkpt>
      <trkpt lat="43.62422" lon="7.05602">
        <ele>126</ele>
        <time>2011-02-24T11:22:07Z</time>
      </trkpt>
      <trkpt lat="43.62423" lon="7.05625">
        <ele>128</ele>
        <time>2011-02-24T11:22:17Z</time>
      </trkpt>
      <trkpt lat="43.62429" lon="7.05646">
        <ele>129</ele>
        <time>2011-02-24T11:22:23Z</time>
      </trkpt>
      <trkpt lat="43.62434" lon="7.05665">
        <ele>129</ele>
        <time>2011-02-24T11:22:29Z</time>
      </trkpt>
      <trkpt lat="43.62435" lon="7.05691">
        <ele>134</ele>
        <time>2011-02-24T11:22:37Z</time>
      </trkpt>
      <trkpt lat="43.62444" lon="7.0571">
        <ele>136</ele>
        <time>2011-02-24T11:22:43Z</time>
      </trkpt>
      <trkpt lat="43.62456" lon="7.05721">
        <ele>136</ele>
        <time>2011-02-24T11:22:48Z</time>
      </trkpt>
      <trkpt lat="43.62464" lon="7.0574">
        <ele>137</ele>
        <time>2011-02-24T11:22:54Z</time>
      </trkpt>
      <trkpt lat="43.62464" lon="7.05761">
        <ele>142</ele>
        <time>2011-02-24T11:23:01Z</time>
      </trkpt>
      <trkpt lat="43.6246" lon="7.05779">
        <ele>143</ele>
        <time>2011-02-24T11:23:07Z</time>
      </trkpt>
      <trkpt lat="43.62454" lon="7.05797">
        <ele>143</ele>
        <time>2011-02-24T11:23:12Z</time>
      </trkpt>
      <trkpt lat="43.62445" lon="7.05812">
        <ele>143</ele>
        <time>2011-02-24T11:23:18Z</time>
      </trkpt>
      <trkpt lat="43.62434" lon="7.05825">
        <ele>144</ele>
        <time>2011-02-24T11:23:24Z</time>
      </trkpt>
      <trkpt lat="43.62423" lon="7.05838">
        <ele>145</ele>
        <time>2011-02-24T11:23:33Z</time>
      </trkpt>
      <trkpt lat="43.62415" lon="7.05853">
        <ele>144</ele>
        <time>2011-02-24T11:23:40Z</time>
      </trkpt>
      <trkpt lat="43.62409" lon="7.05874">
        <ele>144</ele>
        <time>2011-02-24T11:23:46Z</time>
      </trkpt>
      <trkpt lat="43.62407" lon="7.05893">
        <ele>144</ele>
        <time>2011-02-24T11:23:51Z</time>
      </trkpt>
      <trkpt lat="43.62406" lon="7.05933">
        <ele>146</ele>
        <time>2011-02-24T11:23:59Z</time>
      </trkpt>
      <trkpt lat="43.62422" lon="7.05925">
        <ele>147</ele>
        <time>2011-02-24T11:24:15Z</time>
      </trkpt>
      <trkpt lat="43.62437" lon="7.05915">
        <ele>147</ele>
        <time>2011-02-24T11:24:22Z</time>
      </trkpt>
      <trkpt lat="43.62455" lon="7.05909">
        <ele>148</ele>
        <time>2011-02-24T11:24:30Z</time>
      </trkpt>
      <trkpt lat="43.62467" lon="7.05918">
        <ele>150</ele>
        <time>2011-02-24T11:24:36Z</time>
      </trkpt>
      <trkpt lat="43.62475" lon="7.05937">
        <ele>150</ele>
        <time>2011-02-24T11:24:43Z</time>
      </trkpt>
      <trkpt lat="43.62481" lon="7.05957">
        <ele>150</ele>
        <time>2011-02-24T11:24:50Z</time>
      </trkpt>
      <trkpt lat="43.62488" lon="7.05979">
        <ele>150</ele>
        <time>2011-02-24T11:24:59Z</time>
      </trkpt>
      <trkpt lat="43.62496" lon="7.05999">
        <ele>152</ele>
        <time>2011-02-24T11:25:08Z</time>
      </trkpt>
      <trkpt lat="43.62507" lon="7.06012">
        <ele>151</ele>
        <time>2011-02-24T11:25:16Z</time>
      </trkpt>
      <trkpt lat="43.62523" lon="7.06021">
        <ele>151</ele>
        <time>2011-02-24T11:25:22Z</time>
      </trkpt>
      <trkpt lat="43.62539" lon="7.06015">
        <ele>151</ele>
        <time>2011-02-24T11:25:29Z</time>
      </trkpt>
      <trkpt lat="43.6255" lon="7.06001">
        <ele>152</ele>
        <time>2011-02-24T11:25:35Z</time>
      </trkpt>
      <trkpt lat="43.62562" lon="7.05988">
        <ele>155</ele>
        <time>2011-02-24T11:25:42Z</time>
      </trkpt>
      <trkpt lat="43.62576" lon="7.05972">
        <ele>155</ele>
        <time>2011-02-24T11:25:49Z</time>
      </trkpt>
      <trkpt lat="43.6259" lon="7.05957">
        <ele>157</ele>
        <time>2011-02-24T11:25:56Z</time>
      </trkpt>
      <trkpt lat="43.62609" lon="7.05953">
        <ele>157</ele>
        <time>2011-02-24T11:26:03Z</time>
      </trkpt>
      <trkpt lat="43.62628" lon="7.05959">
        <ele>157</ele>
        <time>2011-02-24T11:26:10Z</time>
      </trkpt>
      <trkpt lat="43.6264" lon="7.05966">
        <ele>157</ele>
        <time>2011-02-24T11:26:14Z</time>
      </trkpt>
      <trkpt lat="43.62657" lon="7.05975">
        <ele>157</ele>
        <time>2011-02-24T11:26:21Z</time>
      </trkpt>
      <trkpt lat="43.62673" lon="7.05979">
        <ele>159</ele>
        <time>2011-02-24T11:26:29Z</time>
      </trkpt>
      <trkpt lat="43.62691" lon="7.0599">
        <ele>160</ele>
        <time>2011-02-24T11:26:35Z</time>
      </trkpt>
      <trkpt lat="43.62704" lon="7.05999">
        <ele>161</ele>
        <time>2011-02-24T11:26:40Z</time>
      </trkpt>
      <trkpt lat="43.6272" lon="7.06011">
        <ele>157</ele>
        <time>2011-02-24T11:26:47Z</time>
      </trkpt>
      <trkpt lat="43.62735" lon="7.06024">
        <ele>158</ele>
        <time>2011-02-24T11:26:54Z</time>
      </trkpt>
      <trkpt lat="43.62746" lon="7.06039">
        <ele>157</ele>
        <time>2011-02-24T11:27:00Z</time>
      </trkpt>
      <trkpt lat="43.62757" lon="7.06052">
        <ele>163</ele>
        <time>2011-02-24T11:27:07Z</time>
      </trkpt>
      <trkpt lat="43.62784" lon="7.06061">
        <ele>164</ele>
        <time>2011-02-24T11:27:20Z</time>
      </trkpt>
      <trkpt lat="43.628" lon="7.06043">
        <ele>165</ele>
        <time>2011-02-24T11:27:29Z</time>
      </trkpt>
      <trkpt lat="43.62811" lon="7.0603">
        <ele>166</ele>
        <time>2011-02-24T11:27:35Z</time>
      </trkpt>
      <trkpt lat="43.62819" lon="7.06013">
        <ele>168</ele>
        <time>2011-02-24T11:27:41Z</time>
      </trkpt>
      <trkpt lat="43.62828" lon="7.05998">
        <ele>172</ele>
        <time>2011-02-24T11:27:48Z</time>
      </trkpt>
      <trkpt lat="43.62835" lon="7.0598">
        <ele>171</ele>
        <time>2011-02-24T11:27:54Z</time>
      </trkpt>
      <trkpt lat="43.62844" lon="7.05965">
        <ele>171</ele>
        <time>2011-02-24T11:28:00Z</time>
      </trkpt>
      <trkpt lat="43.62857" lon="7.05948">
        <ele>171</ele>
        <time>2011-02-24T11:28:08Z</time>
      </trkpt>
      <trkpt lat="43.62869" lon="7.05937">
        <ele>170</ele>
        <time>2011-02-24T11:28:32Z</time>
      </trkpt>
      <trkpt lat="43.6288" lon="7.05925">
        <ele>170</ele>
        <time>2011-02-24T11:28:40Z</time>
      </trkpt>
      <trkpt lat="43.62884" lon="7.05902">
        <ele>170</ele>
        <time>2011-02-24T11:28:47Z</time>
      </trkpt>
      <trkpt lat="43.62887" lon="7.05877">
        <ele>171</ele>
        <time>2011-02-24T11:28:54Z</time>
      </trkpt>
      <trkpt lat="43.62892" lon="7.05851">
        <ele>170</ele>
        <time>2011-02-24T11:29:01Z</time>
      </trkpt>
      <trkpt lat="43.62895" lon="7.05827">
        <ele>169</ele>
        <time>2011-02-24T11:29:08Z</time>
      </trkpt>
      <trkpt lat="43.62887" lon="7.05801">
        <ele>170</ele>
        <time>2011-02-24T11:29:15Z</time>
      </trkpt>
      <trkpt lat="43.62878" lon="7.05784">
        <ele>170</ele>
        <time>2011-02-24T11:29:20Z</time>
      </trkpt>
      <trkpt lat="43.6287" lon="7.05769">
        <ele>170</ele>
        <time>2011-02-24T11:29:25Z</time>
      </trkpt>
      <trkpt lat="43.62863" lon="7.05752">
        <ele>170</ele>
        <time>2011-02-24T11:29:29Z</time>
      </trkpt>
      <trkpt lat="43.62862" lon="7.05731">
        <ele>169</ele>
        <time>2011-02-24T11:29:33Z</time>
      </trkpt>
      <trkpt lat="43.62868" lon="7.05713">
        <ele>169</ele>
        <time>2011-02-24T11:29:38Z</time>
      </trkpt>
      <trkpt lat="43.62877" lon="7.05694">
        <ele>169</ele>
        <time>2011-02-24T11:29:43Z</time>
      </trkpt>
      <trkpt lat="43.62886" lon="7.05674">
        <ele>169</ele>
        <time>2011-02-24T11:29:48Z</time>
      </trkpt>
      <trkpt lat="43.62895" lon="7.05648">
        <ele>171</ele>
        <time>2011-02-24T11:29:56Z</time>
      </trkpt>
      <trkpt lat="43.62902" lon="7.05629">
        <ele>171</ele>
        <time>2011-02-24T11:30:00Z</time>
      </trkpt>
      <trkpt lat="43.62907" lon="7.05612">
        <ele>172</ele>
        <time>2011-02-24T11:30:04Z</time>
      </trkpt>
      <trkpt lat="43.62911" lon="7.05593">
        <ele>174</ele>
        <time>2011-02-24T11:30:09Z</time>
      </trkpt>
      <trkpt lat="43.62916" lon="7.05574">
        <ele>175</ele>
        <time>2011-02-24T11:30:15Z</time>
      </trkpt>
      <trkpt lat="43.62919" lon="7.05555">
        <ele>176</ele>
        <time>2011-02-24T11:30:20Z</time>
      </trkpt>
      <trkpt lat="43.62921" lon="7.05536">
        <ele>177</ele>
        <time>2011-02-24T11:30:26Z</time>
      </trkpt>
      <trkpt lat="43.6293" lon="7.05521">
        <ele>177</ele>
        <time>2011-02-24T11:30:31Z</time>
      </trkpt>
      <trkpt lat="43.62941" lon="7.05507">
        <ele>178</ele>
        <time>2011-02-24T11:30:38Z</time>
      </trkpt>
      <trkpt lat="43.62951" lon="7.05487">
        <ele>178</ele>
        <time>2011-02-24T11:30:46Z</time>
      </trkpt>
      <trkpt lat="43.6296" lon="7.0547">
        <ele>178</ele>
        <time>2011-02-24T11:30:51Z</time>
      </trkpt>
      <trkpt lat="43.62974" lon="7.05435">
        <ele>178</ele>
        <time>2011-02-24T11:30:59Z</time>
      </trkpt>
      <trkpt lat="43.62979" lon="7.05416">
        <ele>178</ele>
        <time>2011-02-24T11:31:03Z</time>
      </trkpt>
      <trkpt lat="43.62983" lon="7.05397">
        <ele>178</ele>
        <time>2011-02-24T11:31:08Z</time>
      </trkpt>
      <trkpt lat="43.62988" lon="7.05379">
        <ele>179</ele>
        <time>2011-02-24T11:31:12Z</time>
      </trkpt>
      <trkpt lat="43.62995" lon="7.0536">
        <ele>180</ele>
        <time>2011-02-24T11:31:17Z</time>
      </trkpt>
      <trkpt lat="43.63003" lon="7.05342">
        <ele>178</ele>
        <time>2011-02-24T11:31:26Z</time>
      </trkpt>
      <trkpt lat="43.63011" lon="7.05325">
        <ele>179</ele>
        <time>2011-02-24T11:31:30Z</time>
      </trkpt>
      <trkpt lat="43.63018" lon="7.05307">
        <ele>177</ele>
        <time>2011-02-24T11:31:35Z</time>
      </trkpt>
      <trkpt lat="43.63024" lon="7.0529">
        <ele>177</ele>
        <time>2011-02-24T11:31:39Z</time>
      </trkpt>
      <trkpt lat="43.63024" lon="7.05271">
        <ele>178</ele>
        <time>2011-02-24T11:31:44Z</time>
      </trkpt>
      <trkpt lat="43.63018" lon="7.05245">
        <ele>180</ele>
        <time>2011-02-24T11:31:51Z</time>
      </trkpt>
      <trkpt lat="43.63014" lon="7.05227">
        <ele>179</ele>
        <time>2011-02-24T11:31:55Z</time>
      </trkpt>
      <trkpt lat="43.63008" lon="7.05209">
        <ele>179</ele>
        <time>2011-02-24T11:31:59Z</time>
      </trkpt>
      <trkpt lat="43.63001" lon="7.05191">
        <ele>180</ele>
        <time>2011-02-24T11:32:03Z</time>
      </trkpt>
      <trkpt lat="43.62997" lon="7.0517">
        <ele>184</ele>
        <time>2011-02-24T11:32:08Z</time>
      </trkpt>
      <trkpt lat="43.62995" lon="7.05148">
        <ele>182</ele>
        <time>2011-02-24T11:32:12Z</time>
      </trkpt>
      <trkpt lat="43.62995" lon="7.05128">
        <ele>181</ele>
        <time>2011-02-24T11:32:16Z</time>
      </trkpt>
      <trkpt lat="43.62998" lon="7.05106">
        <ele>181</ele>
        <time>2011-02-24T11:32:21Z</time>
      </trkpt>
      <trkpt lat="43.63002" lon="7.05086">
        <ele>179</ele>
        <time>2011-02-24T11:32:26Z</time>
      </trkpt>
      <trkpt lat="43.63002" lon="7.05065">
        <ele>176</ele>
        <time>2011-02-24T11:32:31Z</time>
      </trkpt>
      <trkpt lat="43.63003" lon="7.05044">
        <ele>174</ele>
        <time>2011-02-24T11:32:35Z</time>
      </trkpt>
      <trkpt lat="43.63008" lon="7.05024">
        <ele>175</ele>
        <time>2011-02-24T11:32:40Z</time>
      </trkpt>
      <trkpt lat="43.63013" lon="7.05005">
        <ele>176</ele>
        <time>2011-02-24T11:32:44Z</time>
      </trkpt>
      <trkpt lat="43.63018" lon="7.04985">
        <ele>174</ele>
        <time>2011-02-24T11:32:48Z</time>
      </trkpt>
      <trkpt lat="43.63022" lon="7.04965">
        <ele>173</ele>
        <time>2011-02-24T11:32:52Z</time>
      </trkpt>
      <trkpt lat="43.63028" lon="7.04947">
        <ele>173</ele>
        <time>2011-02-24T11:32:57Z</time>
      </trkpt>
      <trkpt lat="43.63036" lon="7.04929">
        <ele>172</ele>
        <time>2011-02-24T11:33:01Z</time>
      </trkpt>
      <trkpt lat="43.63044" lon="7.04913">
        <ele>171</ele>
        <time>2011-02-24T11:33:05Z</time>
      </trkpt>
      <trkpt lat="43.63051" lon="7.04895">
        <ele>170</ele>
        <time>2011-02-24T11:33:10Z</time>
      </trkpt>
      <trkpt lat="43.63054" lon="7.04876">
        <ele>170</ele>
        <time>2011-02-24T11:33:14Z</time>
      </trkpt>
      <trkpt lat="43.63051" lon="7.04854">
        <ele>170</ele>
        <time>2011-02-24T11:33:18Z</time>
      </trkpt>
      <trkpt lat="43.63042" lon="7.04834">
        <ele>171</ele>
        <time>2011-02-24T11:33:23Z</time>
      </trkpt>
      <trkpt lat="43.63035" lon="7.04812">
        <ele>171</ele>
        <time>2011-02-24T11:33:28Z</time>
      </trkpt>
      <trkpt lat="43.6303" lon="7.0479">
        <ele>171</ele>
        <time>2011-02-24T11:33:32Z</time>
      </trkpt>
      <trkpt lat="43.63025" lon="7.04752">
        <ele>173</ele>
        <time>2011-02-24T11:33:41Z</time>
      </trkpt>
      <trkpt lat="43.63021" lon="7.04733">
        <ele>171</ele>
        <time>2011-02-24T11:33:45Z</time>
      </trkpt>
      <trkpt lat="43.63018" lon="7.04713">
        <ele>170</ele>
        <time>2011-02-24T11:33:50Z</time>
      </trkpt>
      <trkpt lat="43.63014" lon="7.04694">
        <ele>170</ele>
        <time>2011-02-24T11:33:55Z</time>
      </trkpt>
      <trkpt lat="43.63008" lon="7.04673">
        <ele>172</ele>
        <time>2011-02-24T11:34:00Z</time>
      </trkpt>
      <trkpt lat="43.63001" lon="7.04657">
        <ele>172</ele>
        <time>2011-02-24T11:34:04Z</time>
      </trkpt>
      <trkpt lat="43.6299" lon="7.04637">
        <ele>177</ele>
        <time>2011-02-24T11:34:10Z</time>
      </trkpt>
      <trkpt lat="43.62981" lon="7.04623">
        <ele>177</ele>
        <time>2011-02-24T11:34:14Z</time>
      </trkpt>
      <trkpt lat="43.62971" lon="7.04609">
        <ele>177</ele>
        <time>2011-02-24T11:34:19Z</time>
      </trkpt>
      <trkpt lat="43.62961" lon="7.04596">
        <ele>177</ele>
        <time>2011-02-24T11:34:24Z</time>
      </trkpt>
      <trkpt lat="43.62949" lon="7.04585">
        <ele>178</ele>
        <time>2011-02-24T11:34:28Z</time>
      </trkpt>
      <trkpt lat="43.62938" lon="7.04576">
        <ele>178</ele>
        <time>2011-02-24T11:34:33Z</time>
      </trkpt>
      <trkpt lat="43.62927" lon="7.04565">
        <ele>179</ele>
        <time>2011-02-24T11:34:37Z</time>
      </trkpt>
      <trkpt lat="43.62918" lon="7.04546">
        <ele>178</ele>
        <time>2011-02-24T11:34:42Z</time>
      </trkpt>
      <trkpt lat="43.62909" lon="7.04528">
        <ele>181</ele>
        <time>2011-02-24T11:34:48Z</time>
      </trkpt>
      <trkpt lat="43.62903" lon="7.04507">
        <ele>180</ele>
        <time>2011-02-24T11:34:54Z</time>
      </trkpt>
      <trkpt lat="43.62898" lon="7.04488">
        <ele>181</ele>
        <time>2011-02-24T11:34:59Z</time>
      </trkpt>
      <trkpt lat="43.62899" lon="7.04468">
        <ele>181</ele>
        <time>2011-02-24T11:35:03Z</time>
      </trkpt>
      <trkpt lat="43.62901" lon="7.04449">
        <ele>182</ele>
        <time>2011-02-24T11:35:08Z</time>
      </trkpt>
      <trkpt lat="43.62902" lon="7.04429">
        <ele>183</ele>
        <time>2011-02-24T11:35:12Z</time>
      </trkpt>
      <trkpt lat="43.62906" lon="7.04411">
        <ele>185</ele>
        <time>2011-02-24T11:35:19Z</time>
      </trkpt>
      <trkpt lat="43.62915" lon="7.04389">
        <ele>185</ele>
        <time>2011-02-24T11:35:26Z</time>
      </trkpt>
      <trkpt lat="43.6293" lon="7.04382">
        <ele>189</ele>
        <time>2011-02-24T11:35:33Z</time>
      </trkpt>
      <trkpt lat="43.62944" lon="7.04382">
        <ele>189</ele>
        <time>2011-02-24T11:35:39Z</time>
      </trkpt>
      <trkpt lat="43.62966" lon="7.04375">
        <ele>190</ele>
        <time>2011-02-24T11:35:50Z</time>
      </trkpt>
      <trkpt lat="43.62981" lon="7.04373">
        <ele>190</ele>
        <time>2011-02-24T11:35:54Z</time>
      </trkpt>
      <trkpt lat="43.62994" lon="7.04369">
        <ele>191</ele>
        <time>2011-02-24T11:35:58Z</time>
      </trkpt>
      <trkpt lat="43.63012" lon="7.04363">
        <ele>193</ele>
        <time>2011-02-24T11:36:04Z</time>
      </trkpt>
      <trkpt lat="43.6303" lon="7.04358">
        <ele>193</ele>
        <time>2011-02-24T11:36:11Z</time>
      </trkpt>
      <trkpt lat="43.63048" lon="7.04357">
        <ele>193</ele>
        <time>2011-02-24T11:36:17Z</time>
      </trkpt>
      <trkpt lat="43.63067" lon="7.04357">
        <ele>193</ele>
        <time>2011-02-24T11:36:24Z</time>
      </trkpt>
      <trkpt lat="43.63086" lon="7.04352">
        <ele>194</ele>
        <time>2011-02-24T11:36:30Z</time>
      </trkpt>
      <trkpt lat="43.63106" lon="7.04348">
        <ele>194</ele>
        <time>2011-02-24T11:36:36Z</time>
      </trkpt>
      <trkpt lat="43.63124" lon="7.04342">
        <ele>194</ele>
        <time>2011-02-24T11:36:42Z</time>
      </trkpt>
      <trkpt lat="43.63142" lon="7.04334">
        <ele>195</ele>
        <time>2011-02-24T11:36:49Z</time>
      </trkpt>
      <trkpt lat="43.63158" lon="7.04327">
        <ele>197</ele>
        <time>2011-02-24T11:36:55Z</time>
      </trkpt>
      <trkpt lat="43.63169" lon="7.04282">
        <ele>186</ele>
        <time>2011-02-24T11:37:31Z</time>
      </trkpt>
      <trkpt lat="43.63159" lon="7.04246">
        <ele>195</ele>
        <time>2011-02-24T11:37:41Z</time>
      </trkpt>
      <trkpt lat="43.63135" lon="7.04214">
        <ele>196</ele>
        <time>2011-02-24T11:37:50Z</time>
      </trkpt>
      <trkpt lat="43.63118" lon="7.0418">
        <ele>196</ele>
        <time>2011-02-24T11:38:00Z</time>
      </trkpt>
      <trkpt lat="43.63104" lon="7.04157">
        <ele>193</ele>
        <time>2011-02-24T11:38:07Z</time>
      </trkpt>
      <trkpt lat="43.63092" lon="7.04138">
        <ele>192</ele>
        <time>2011-02-24T11:38:11Z</time>
      </trkpt>
      <trkpt lat="43.63079" lon="7.04119">
        <ele>198</ele>
        <time>2011-02-24T11:38:15Z</time>
      </trkpt>
      <trkpt lat="43.63067" lon="7.04102">
        <ele>197</ele>
        <time>2011-02-24T11:38:19Z</time>
      </trkpt>
      <trkpt lat="43.63052" lon="7.04088">
        <ele>197</ele>
        <time>2011-02-24T11:38:24Z</time>
      </trkpt>
      <trkpt lat="43.63037" lon="7.04078">
        <ele>192</ele>
        <time>2011-02-24T11:38:28Z</time>
      </trkpt>
      <trkpt lat="43.63023" lon="7.04069">
        <ele>193</ele>
        <time>2011-02-24T11:38:32Z</time>
      </trkpt>
      <trkpt lat="43.63009" lon="7.04063">
        <ele>193</ele>
        <time>2011-02-24T11:38:39Z</time>
      </trkpt>
      <trkpt lat="43.62994" lon="7.0406">
        <ele>195</ele>
        <time>2011-02-24T11:38:43Z</time>
      </trkpt>
      <trkpt lat="43.62977" lon="7.04048">
        <ele>195</ele>
        <time>2011-02-24T11:38:49Z</time>
      </trkpt>
      <trkpt lat="43.62967" lon="7.04034">
        <ele>194</ele>
        <time>2011-02-24T11:38:53Z</time>
      </trkpt>
      <trkpt lat="43.62968" lon="7.04014">
        <ele>194</ele>
        <time>2011-02-24T11:39:00Z</time>
      </trkpt>
      <trkpt lat="43.62982" lon="7.03999">
        <ele>193</ele>
        <time>2011-02-24T11:39:07Z</time>
      </trkpt>
      <trkpt lat="43.62995" lon="7.03993">
        <ele>192</ele>
        <time>2011-02-24T11:39:12Z</time>
      </trkpt>
      <trkpt lat="43.63012" lon="7.03985">
        <ele>186</ele>
        <time>2011-02-24T11:39:18Z</time>
      </trkpt>
      <trkpt lat="43.63026" lon="7.03989">
        <ele>184</ele>
        <time>2011-02-24T11:39:23Z</time>
      </trkpt>
      <trkpt lat="43.6304" lon="7.03997">
        <ele>182</ele>
        <time>2011-02-24T11:39:28Z</time>
      </trkpt>
      <trkpt lat="43.63053" lon="7.04008">
        <ele>186</ele>
        <time>2011-02-24T11:39:32Z</time>
      </trkpt>
      <trkpt lat="43.63064" lon="7.04021">
        <ele>185</ele>
        <time>2011-02-24T11:39:37Z</time>
      </trkpt>
      <trkpt lat="43.63079" lon="7.04038">
        <ele>187</ele>
        <time>2011-02-24T11:39:44Z</time>
      </trkpt>
      <trkpt lat="43.63093" lon="7.0405">
        <ele>177</ele>
        <time>2011-02-24T11:39:50Z</time>
      </trkpt>
      <trkpt lat="43.63109" lon="7.04058">
        <ele>176</ele>
        <time>2011-02-24T11:39:56Z</time>
      </trkpt>
      <trkpt lat="43.63125" lon="7.0407">
        <ele>174</ele>
        <time>2011-02-24T11:40:03Z</time>
      </trkpt>
      <trkpt lat="43.63116" lon="7.04053">
        <ele>174</ele>
        <time>2011-02-24T11:40:20Z</time>
      </trkpt>
      <trkpt lat="43.631" lon="7.04015">
        <ele>173</ele>
        <time>2011-02-24T11:40:28Z</time>
      </trkpt>
      <trkpt lat="43.63091" lon="7.04001">
        <ele>175</ele>
        <time>2011-02-24T11:40:33Z</time>
      </trkpt>
      <trkpt lat="43.63078" lon="7.03981">
        <ele>178</ele>
        <time>2011-02-24T11:40:39Z</time>
      </trkpt>
      <trkpt lat="43.63069" lon="7.03959">
        <ele>179</ele>
        <time>2011-02-24T11:40:46Z</time>
      </trkpt>
      <trkpt lat="43.63059" lon="7.03937">
        <ele>178</ele>
        <time>2011-02-24T11:40:52Z</time>
      </trkpt>
      <trkpt lat="43.63058" lon="7.0391">
        <ele>178</ele>
        <time>2011-02-24T11:40:59Z</time>
      </trkpt>
      <trkpt lat="43.63068" lon="7.03887">
        <ele>179</ele>
        <time>2011-02-24T11:41:05Z</time>
      </trkpt>
      <trkpt lat="43.63082" lon="7.0387">
        <ele>179</ele>
        <time>2011-02-24T11:41:12Z</time>
      </trkpt>
      <trkpt lat="43.63093" lon="7.03851">
        <ele>169</ele>
        <time>2011-02-24T11:41:18Z</time>
      </trkpt>
      <trkpt lat="43.63102" lon="7.03832">
        <ele>171</ele>
        <time>2011-02-24T11:41:24Z</time>
      </trkpt>
      <trkpt lat="43.63106" lon="7.03808">
        <ele>170</ele>
        <time>2011-02-24T11:41:33Z</time>
      </trkpt>
      <trkpt lat="43.63106" lon="7.03786">
        <ele>170</ele>
        <time>2011-02-24T11:41:40Z</time>
      </trkpt>
      <trkpt lat="43.63101" lon="7.03767">
        <ele>172</ele>
        <time>2011-02-24T11:41:45Z</time>
      </trkpt>
      <trkpt lat="43.63082" lon="7.03747">
        <ele>183</ele>
        <time>2011-02-24T11:41:54Z</time>
      </trkpt>
      <trkpt lat="43.63069" lon="7.03736">
        <ele>185</ele>
        <time>2011-02-24T11:42:01Z</time>
      </trkpt>
      <trkpt lat="43.63062" lon="7.0373">
        <ele>186</ele>
        <time>2011-02-24T11:42:05Z</time>
      </trkpt>
      <trkpt lat="43.63047" lon="7.03719">
        <ele>188</ele>
        <time>2011-02-24T11:42:16Z</time>
      </trkpt>
      <trkpt lat="43.63033" lon="7.03708">
        <ele>189</ele>
        <time>2011-02-24T11:42:25Z</time>
      </trkpt>
      <trkpt lat="43.6302" lon="7.03699">
        <ele>190</ele>
        <time>2011-02-24T11:42:32Z</time>
      </trkpt>
      <trkpt lat="43.6301" lon="7.03688">
        <ele>191</ele>
        <time>2011-02-24T11:42:39Z</time>
      </trkpt>
      <trkpt lat="43.62996" lon="7.03678">
        <ele>197</ele>
        <time>2011-02-24T11:42:46Z</time>
      </trkpt>
      <trkpt lat="43.62983" lon="7.03668">
        <ele>198</ele>
        <time>2011-02-24T11:42:52Z</time>
      </trkpt>
      <trkpt lat="43.62971" lon="7.03659">
        <ele>197</ele>
        <time>2011-02-24T11:43:00Z</time>
      </trkpt>
      <trkpt lat="43.62957" lon="7.03651">
        <ele>198</ele>
        <time>2011-02-24T11:43:07Z</time>
      </trkpt>
      <trkpt lat="43.62939" lon="7.03643">
        <ele>199</ele>
        <time>2011-02-24T11:43:14Z</time>
      </trkpt>
      <trkpt lat="43.62926" lon="7.03634">
        <ele>199</ele>
        <time>2011-02-24T11:43:19Z</time>
      </trkpt>
      <trkpt lat="43.62913" lon="7.03626">
        <ele>202</ele>
        <time>2011-02-24T11:43:24Z</time>
      </trkpt>
      <trkpt lat="43.629" lon="7.03621">
        <ele>202</ele>
        <time>2011-02-24T11:43:29Z</time>
      </trkpt>
      <trkpt lat="43.62881" lon="7.03614">
        <ele>201</ele>
        <time>2011-02-24T11:43:39Z</time>
      </trkpt>
      <trkpt lat="43.62865" lon="7.03612">
        <ele>201</ele>
        <time>2011-02-24T11:43:50Z</time>
      </trkpt>
      <trkpt lat="43.62853" lon="7.03621">
        <ele>201</ele>
        <time>2011-02-24T11:43:56Z</time>
      </trkpt>
      <trkpt lat="43.62838" lon="7.03636">
        <ele>201</ele>
        <time>2011-02-24T11:44:07Z</time>
      </trkpt>
      <trkpt lat="43.62819" lon="7.03642">
        <ele>201</ele>
        <time>2011-02-24T11:44:14Z</time>
      </trkpt>
      <trkpt lat="43.628" lon="7.03647">
        <ele>201</ele>
        <time>2011-02-24T11:44:20Z</time>
      </trkpt>
      <trkpt lat="43.62782" lon="7.03659">
        <ele>200</ele>
        <time>2011-02-24T11:44:27Z</time>
      </trkpt>
      <trkpt lat="43.62766" lon="7.03675">
        <ele>198</ele>
        <time>2011-02-24T11:44:33Z</time>
      </trkpt>
      <trkpt lat="43.62753" lon="7.03688">
        <ele>198</ele>
        <time>2011-02-24T11:44:39Z</time>
      </trkpt>
      <trkpt lat="43.6274" lon="7.03701">
        <ele>196</ele>
        <time>2011-02-24T11:44:44Z</time>
      </trkpt>
      <trkpt lat="43.62724" lon="7.03717">
        <ele>196</ele>
        <time>2011-02-24T11:44:51Z</time>
      </trkpt>
      <trkpt lat="43.62707" lon="7.03732">
        <ele>195</ele>
        <time>2011-02-24T11:44:57Z</time>
      </trkpt>
      <trkpt lat="43.62696" lon="7.03741">
        <ele>195</ele>
        <time>2011-02-24T11:45:01Z</time>
      </trkpt>
      <trkpt lat="43.62682" lon="7.03748">
        <ele>194</ele>
        <time>2011-02-24T11:45:06Z</time>
      </trkpt>
      <trkpt lat="43.62664" lon="7.03755">
        <ele>191</ele>
        <time>2011-02-24T11:45:12Z</time>
      </trkpt>
      <trkpt lat="43.62645" lon="7.03755">
        <ele>188</ele>
        <time>2011-02-24T11:45:19Z</time>
      </trkpt>
      <trkpt lat="43.62632" lon="7.03752">
        <ele>187</ele>
        <time>2011-02-24T11:45:23Z</time>
      </trkpt>
      <trkpt lat="43.62615" lon="7.03744">
        <ele>191</ele>
        <time>2011-02-24T11:45:30Z</time>
      </trkpt>
      <trkpt lat="43.62602" lon="7.03735">
        <ele>190</ele>
        <time>2011-02-24T11:45:34Z</time>
      </trkpt>
      <trkpt lat="43.62588" lon="7.03729">
        <ele>190</ele>
        <time>2011-02-24T11:45:39Z</time>
      </trkpt>
      <trkpt lat="43.62573" lon="7.03728">
        <ele>188</ele>
        <time>2011-02-24T11:45:43Z</time>
      </trkpt>
      <trkpt lat="43.62559" lon="7.03729">
        <ele>188</ele>
        <time>2011-02-24T11:45:47Z</time>
      </trkpt>
      <trkpt lat="43.62545" lon="7.03729">
        <ele>188</ele>
        <time>2011-02-24T11:45:52Z</time>
      </trkpt>
      <trkpt lat="43.62531" lon="7.03728">
        <ele>188</ele>
        <time>2011-02-24T11:45:56Z</time>
      </trkpt>
      <trkpt lat="43.62516" lon="7.03727">
        <ele>188</ele>
        <time>2011-02-24T11:46:01Z</time>
      </trkpt>
      <trkpt lat="43.62501" lon="7.03728">
        <ele>187</ele>
        <time>2011-02-24T11:46:06Z</time>
      </trkpt>
      <trkpt lat="43.6249" lon="7.03742">
        <ele>187</ele>
        <time>2011-02-24T11:46:11Z</time>
      </trkpt>
      <trkpt lat="43.62489" lon="7.03767">
        <ele>186</ele>
        <time>2011-02-24T11:46:17Z</time>
      </trkpt>
      <trkpt lat="43.62497" lon="7.03783">
        <ele>187</ele>
        <time>2011-02-24T11:46:22Z</time>
      </trkpt>
      <trkpt lat="43.62512" lon="7.03801">
        <ele>184</ele>
        <time>2011-02-24T11:46:28Z</time>
      </trkpt>
      <trkpt lat="43.62523" lon="7.03813">
        <ele>184</ele>
        <time>2011-02-24T11:46:33Z</time>
      </trkpt>
      <trkpt lat="43.62535" lon="7.03823">
        <ele>184</ele>
        <time>2011-02-24T11:46:37Z</time>
      </trkpt>
      <trkpt lat="43.62546" lon="7.03838">
        <ele>183</ele>
        <time>2011-02-24T11:46:42Z</time>
      </trkpt>
      <trkpt lat="43.62556" lon="7.03852">
        <ele>182</ele>
        <time>2011-02-24T11:46:47Z</time>
      </trkpt>
      <trkpt lat="43.62569" lon="7.03868">
        <ele>182</ele>
        <time>2011-02-24T11:46:53Z</time>
      </trkpt>
      <trkpt lat="43.62581" lon="7.03881">
        <ele>182</ele>
        <time>2011-02-24T11:46:58Z</time>
      </trkpt>
      <trkpt lat="43.62593" lon="7.03893">
        <ele>179</ele>
        <time>2011-02-24T11:47:02Z</time>
      </trkpt>
      <trkpt lat="43.62606" lon="7.03909">
        <ele>178</ele>
        <time>2011-02-24T11:47:08Z</time>
      </trkpt>
      <trkpt lat="43.62617" lon="7.0392">
        <ele>176</ele>
        <time>2011-02-24T11:47:12Z</time>
      </trkpt>
      <trkpt lat="43.62633" lon="7.03937">
        <ele>176</ele>
        <time>2011-02-24T11:47:19Z</time>
      </trkpt>
      <trkpt lat="43.62644" lon="7.03948">
        <ele>175</ele>
        <time>2011-02-24T11:47:23Z</time>
      </trkpt>
      <trkpt lat="43.62653" lon="7.03962">
        <ele>175</ele>
        <time>2011-02-24T11:47:27Z</time>
      </trkpt>
      <trkpt lat="43.62657" lon="7.0398">
        <ele>174</ele>
        <time>2011-02-24T11:47:32Z</time>
      </trkpt>
      <trkpt lat="43.6266" lon="7.04001">
        <ele>172</ele>
        <time>2011-02-24T11:47:38Z</time>
      </trkpt>
      <trkpt lat="43.62665" lon="7.04018">
        <ele>172</ele>
        <time>2011-02-24T11:47:42Z</time>
      </trkpt>
      <trkpt lat="43.62665" lon="7.04018">
        <ele>172</ele>
        <time>2011-02-24T11:47:44Z</time>
      </trkpt>
      <trkpt lat="43.62665" lon="7.04018">
        <ele>172</ele>
        <time>2011-02-24T11:48:01Z</time>
      </trkpt>
    </trkseg>
  </trk>
</gpx>